Douglas B.gurian — WDH7352 — position and weather

sailwx.info

Track history (hours):
 
Tides and Currents Weather Stations Pressure Air Temp Water Temp Dewpoint Dewpoint Depression Visibility Wind Speed Wind Dir Waves Ship Positions

Douglas B.gurian

Owner: Port Imperial Ferry Corporation, Weehawken, NJ. More information available from US FCC via Universal Licensing System and Coast Guard Vessel Documentation Center.

Last reported at 2018-Jun-25 05:41 UTC. Time now 2018-Jun-25 06:06 UTC.
Position N 40°46' W 074°01'.

Length 21 m; draft 2 m.

Type: Passenger vessel. MMSI: 366834170.

Date/timePositionNaut miles runAvg speedWind from/ knotsBaromVisibWave heightAir tempDewpointWater temp
2018-Jun-25 05:41N 40°46' W 074°01'0 0.0
2018-Jun-25 04:53N 40°46' W 074°01'0 0.0
2018-Jun-25 03:17N 40°46' W 074°01'0 0.0
2018-Jun-25 02:52N 40°46' W 074°01'0 0.0
2018-Jun-25 02:14N 40°46' W 074°01'0 0.0
2018-Jun-25 01:59N 40°46' W 074°01'0 0.0
2018-Jun-24 04:25N 40°46' W 074°01'1 2.3
2018-Jun-24 04:00N 40°45' W 074°01'1 1.2
2018-Jun-24 03:29N 40°46' W 074°00'1 1.1
2018-Jun-24 02:59N 40°45' W 074°01'0 0.5
2018-Jun-24 02:28N 40°45' W 074°01'0 0.9
2018-Jun-24 02:01N 40°45' W 074°01'1 1.2
2018-Jun-24 01:27N 40°46' W 074°00'1 1.4
2018-Jun-24 01:00N 40°45' W 074°01'1 1.0
2018-Jun-24 00:28N 40°46' W 074°01'1 1.3
2018-Jun-24 00:00N 40°46' W 074°01'0 0.8
2018-Jun-23 23:25N 40°45' W 074°01'0 0.7
2018-Jun-23 23:01N 40°45' W 074°01'1 1.2
2018-Jun-23 22:27N 40°46' W 074°00'1 1.7
2018-Jun-23 22:00N 40°45' W 074°01'0 0.8
2018-Jun-23 21:27N 40°45' W 074°01'0 0.9
2018-Jun-23 21:00N 40°45' W 074°01'1 1.5
2018-Jun-23 20:30N 40°46' W 074°00'1 1.3
2018-Jun-23 20:00N 40°45' W 074°01'0 0.7
2018-Jun-23 19:25N 40°45' W 074°01'0 1.0
2018-Jun-23 18:59N 40°45' W 074°01'0 0.9
2018-Jun-23 18:28N 40°45' W 074°01'1 1.4
2018-Jun-23 18:00N 40°45' W 074°01'1 1.6
2018-Jun-23 17:28N 40°46' W 074°00'1 1.8
2018-Jun-23 17:00N 40°45' W 074°01'1 1.1
2018-Jun-23 16:27N 40°45' W 074°01'1 1.2
2018-Jun-23 15:59N 40°45' W 074°01'1 1.5
2018-Jun-23 15:27N 40°46' W 074°00'1 1.9
2018-Jun-23 15:00N 40°45' W 074°01'1 1.3
2018-Jun-23 14:26N 40°46' W 074°01'1 1.5
2018-Jun-23 14:00N 40°45' W 074°01'1 1.3
2018-Jun-23 13:27N 40°46' W 074°00'1 1.4
2018-Jun-23 13:00N 40°45' W 074°01'1 0.1
2018-Jun-22 23:34N 40°46' W 074°01'226.6
2018-Jun-22 23:30N 40°45' W 074°01'1 1.7
2018-Jun-22 22:56N 40°46' W 074°00'2 4.1
2018-Jun-22 22:30N 40°44' W 074°02'2 3.0
2018-Jun-22 21:56N 40°46' W 074°00'2 3.9
2018-Jun-22 21:30N 40°44' W 074°02'2 3.2
2018-Jun-22 20:57N 40°46' W 074°00'2 3.9
2018-Jun-22 20:31N 40°44' W 074°02'2 3.2
2018-Jun-22 19:57N 40°46' W 074°00'1 0.3
2018-Jun-22 17:55N 40°46' W 074°01'2 5.8
2018-Jun-22 17:30N 40°44' W 074°02'2 0.1
2018-Jun-22 00:24N 40°46' W 074°01'411.2
2018-Jun-22 00:01N 40°42' W 074°00'2 3.5
2018-Jun-21 23:30N 40°43' W 074°03'0 0.1
2018-Jun-21 23:00N 40°43' W 074°03'0 0.0
2018-Jun-21 22:30N 40°43' W 074°03'0 0.0
2018-Jun-21 22:00N 40°43' W 074°03'0 0.1
2018-Jun-21 21:31N 40°43' W 074°03'0 0.1
2018-Jun-21 21:00N 40°43' W 074°03'0 0.1
2018-Jun-21 20:30N 40°43' W 074°03'1 1.6
2018-Jun-21 20:00N 40°43' W 074°02'3 1.7
2018-Jun-21 17:59N 40°46' W 074°01'4 7.8
2018-Jun-21 17:31N 40°43' W 074°02'1 2.4
2018-Jun-21 17:00N 40°42' W 074°00'1 2.6
2018-Jun-21 16:30N 40°43' W 074°02'1 2.7
2018-Jun-21 16:01N 40°42' W 074°00'1 2.7
2018-Jun-21 15:30N 40°43' W 074°02'1 2.8
2018-Jun-21 15:01N 40°42' W 074°00'1 2.7
2018-Jun-21 14:30N 40°43' W 074°02'0 0.2
2018-Jun-21 14:00N 40°43' W 074°02'0 1.0
2018-Jun-21 13:30N 40°43' W 074°03'0 0.0
2018-Jun-21 13:01N 40°43' W 074°03'0 0.0
2018-Jun-21 12:30N 40°43' W 074°03'0 0.0
2018-Jun-21 12:00N 40°43' W 074°03'0 0.0
2018-Jun-21 11:30N 40°43' W 074°03'0 0.0
2018-Jun-21 11:00N 40°43' W 074°03'0 0.0
2018-Jun-21 10:30N 40°43' W 074°03'0 0.0
2018-Jun-21 10:00N 40°43' W 074°03'0 0.0
2018-Jun-21 01:50N 40°43' W 074°03'2 6.4
2018-Jun-21 01:30N 40°41' W 074°03'2 4.6
2018-Jun-21 01:01N 40°42' W 074°01'2 3.5
2018-Jun-21 00:31N 40°41' W 074°02'2 3.5
2018-Jun-21 00:01N 40°42' W 074°01'0 0.6
2018-Jun-20 23:30N 40°42' W 074°00'0 0.0
2018-Jun-20 23:00N 40°42' W 074°00'0 0.0
2018-Jun-20 22:30N 40°42' W 074°00'0 0.0
2018-Jun-20 22:00N 40°42' W 074°00'0 0.1
2018-Jun-20 21:30N 40°42' W 074°00'0 0.1
2018-Jun-20 21:00N 40°42' W 074°00'0 0.0
2018-Jun-20 20:30N 40°42' W 074°00'0 0.0
2018-Jun-20 20:00N 40°42' W 074°00'1 2.8
2018-Jun-20 19:31N 40°43' W 074°02'1 2.8
2018-Jun-20 19:00N 40°42' W 074°00'1 2.6
2018-Jun-20 18:31N 40°43' W 074°02'1 2.6
2018-Jun-20 18:00N 40°42' W 074°00'2 4.3
2018-Jun-20 17:31N 40°44' W 074°02'2 0.7
2018-Jun-20 14:21N 40°46' W 074°01'3 9.9
2018-Jun-20 14:01N 40°43' W 074°01'1 2.0
2018-Jun-20 13:31N 40°42' W 074°00'0 0.1
2018-Jun-20 13:00N 40°42' W 074°00'0 0.1
2018-Jun-20 12:30N 40°42' W 074°00'0 0.0
2018-Jun-20 12:01N 40°42' W 074°00'0 0.0
2018-Jun-20 11:30N 40°42' W 074°00'0 0.1
2018-Jun-20 11:00N 40°42' W 074°00'0 0.0
2018-Jun-20 10:31N 40°42' W 074°00'2 4.2
2018-Jun-20 10:00N 40°44' W 074°02'2 0.2
2018-Jun-20 00:20N 40°46' W 074°01'412.7
2018-Jun-20 00:01N 40°42' W 074°00'0 0.1
2018-Jun-19 23:31N 40°42' W 074°00'0 0.0
2018-Jun-19 23:00N 40°42' W 074°00'0 0.0
2018-Jun-19 22:31N 40°42' W 074°00'0 0.0
2018-Jun-19 22:01N 40°42' W 074°00'0 0.0
2018-Jun-19 21:30N 40°42' W 074°00'0 0.0
2018-Jun-19 21:00N 40°42' W 074°00'0 0.0
2018-Jun-19 20:31N 40°42' W 074°00'0 0.0
2018-Jun-19 20:00N 40°42' W 074°00'1 2.8
2018-Jun-19 19:30N 40°43' W 074°02'1 2.8
2018-Jun-19 19:00N 40°42' W 074°00'1 2.8
2018-Jun-19 18:30N 40°43' W 074°02'1 2.7
2018-Jun-19 18:00N 40°42' W 074°00'2 4.4
2018-Jun-19 17:30N 40°44' W 074°02'2 0.7
2018-Jun-19 14:12N 40°46' W 074°01'317.0
2018-Jun-19 14:00N 40°43' W 074°01'1 2.3
2018-Jun-19 13:30N 40°42' W 074°00'0 0.0
2018-Jun-19 13:01N 40°42' W 074°00'0 0.0
2018-Jun-19 12:30N 40°42' W 074°00'0 0.0
2018-Jun-19 12:00N 40°42' W 074°00'0 0.0
2018-Jun-19 11:30N 40°42' W 074°00'0 0.0
2018-Jun-19 11:01N 40°42' W 074°00'0 0.0
2018-Jun-19 10:31N 40°42' W 074°00'3 5.1
2018-Jun-19 10:01N 40°45' W 074°01'2 0.2
2018-Jun-19 00:25N 40°46' W 074°01'410.1
2018-Jun-19 00:01N 40°42' W 074°00'2 3.5
2018-Jun-18 23:30N 40°43' W 074°03'0 0.0
2018-Jun-18 23:01N 40°43' W 074°03'0 0.8
2018-Jun-18 22:30N 40°43' W 074°02'0 0.5
2018-Jun-18 22:01N 40°43' W 074°02'0 0.2
2018-Jun-18 21:30N 40°43' W 074°03'0 0.0
2018-Jun-18 21:00N 40°43' W 074°03'0 0.0
2018-Jun-18 20:30N 40°43' W 074°03'1 1.0
2018-Jun-18 20:00N 40°43' W 074°02'1 0.5
2018-Jun-18 17:50N 40°44' W 074°01'1 3.8
2018-Jun-18 17:31N 40°43' W 074°02'1 2.4
2018-Jun-18 17:00N 40°42' W 074°00'1 2.5
2018-Jun-18 16:31N 40°43' W 074°02'1 2.6
2018-Jun-18 16:01N 40°42' W 074°00'1 2.8
2018-Jun-18 15:31N 40°43' W 074°02'1 2.8
2018-Jun-18 15:01N 40°42' W 074°00'1 2.7
2018-Jun-18 14:30N 40°43' W 074°02'1 2.8
2018-Jun-18 14:01N 40°42' W 074°00'2 3.6
2018-Jun-18 13:30N 40°43' W 074°03'0 0.1
2018-Jun-18 13:01N 40°43' W 074°03'0 0.0
2018-Jun-18 12:30N 40°43' W 074°03'0 0.0
2018-Jun-18 12:00N 40°43' W 074°03'0 0.0
2018-Jun-18 11:30N 40°43' W 074°03'0 0.0
2018-Jun-18 11:00N 40°43' W 074°03'0 0.0
2018-Jun-18 10:30N 40°43' W 074°03'0 0.0
2018-Jun-18 10:01N 40°43' W 074°03'0 0.1
2018-Jun-18 09:30N 40°43' W 074°03'0 0.0
2018-Jun-18 09:01N 40°43' W 074°03'0 0.0
2018-Jun-18 08:30N 40°43' W 074°03'0 0.0
2018-Jun-18 08:00N 40°43' W 074°03'0 0.0
2018-Jun-18 07:30N 40°43' W 074°03'0 0.0
2018-Jun-18 07:00N 40°43' W 074°03'0 0.0
2018-Jun-18 06:30N 40°43' W 074°03'0 0.0
2018-Jun-18 06:01N 40°43' W 074°03'0 0.0
2018-Jun-18 05:30N 40°43' W 074°03'0 0.0
2018-Jun-18 05:00N 40°43' W 074°03'0 0.0
2018-Jun-18 04:30N 40°43' W 074°03'0 0.0
2018-Jun-18 04:00N 40°43' W 074°03'0 0.0
2018-Jun-18 03:30N 40°43' W 074°03'0 0.0
2018-Jun-18 03:00N 40°43' W 074°03'0 0.0
2018-Jun-18 02:30N 40°43' W 074°03'0 0.0
2018-Jun-16 02:09N 40°43' W 074°03'210.8
2018-Jun-16 02:00N 40°42' W 074°01'1 1.9
2018-Jun-16 01:30N 40°41' W 074°02'1 2.3
2018-Jun-16 01:01N 40°42' W 074°01'2 3.8
2018-Jun-16 00:30N 40°41' W 074°03'2 3.9
2018-Jun-16 00:01N 40°42' W 074°01'1 2.3
2018-Jun-15 23:31N 40°43' W 074°02'0 0.3
2018-Jun-15 23:00N 40°43' W 074°02'0 0.3
2018-Jun-15 22:30N 40°43' W 074°02'0 0.2
2018-Jun-15 22:00N 40°43' W 074°02'0 0.5
2018-Jun-15 21:30N 40°43' W 074°03'0 0.2
2018-Jun-15 21:00N 40°43' W 074°02'0 0.0
2018-Jun-15 20:30N 40°43' W 074°02'0 0.9
2018-Jun-15 20:00N 40°43' W 074°02'1 0.3
2018-Jun-15 17:48N 40°43' W 074°01'1 2.6
2018-Jun-15 17:31N 40°43' W 074°02'1 2.4
2018-Jun-15 17:00N 40°42' W 074°00'1 2.6
2018-Jun-15 16:31N 40°43' W 074°02'1 2.5
2018-Jun-15 16:00N 40°42' W 074°00'1 2.6
2018-Jun-15 15:31N 40°43' W 074°02'1 2.6
2018-Jun-15 15:00N 40°42' W 074°00'1 2.4
2018-Jun-15 14:30N 40°43' W 074°02'1 2.3
2018-Jun-15 14:01N 40°42' W 074°00'2 3.5
2018-Jun-15 13:31N 40°43' W 074°03'0 0.0
2018-Jun-15 13:00N 40°43' W 074°03'0 0.0
2018-Jun-15 12:30N 40°43' W 074°03'0 0.0
2018-Jun-15 12:00N 40°43' W 074°03'0 0.0
2018-Jun-15 11:30N 40°43' W 074°03'0 0.0
2018-Jun-15 11:00N 40°43' W 074°03'0 0.1
2018-Jun-15 10:30N 40°43' W 074°03'0 0.1
2018-Jun-15 10:00N 40°43' W 074°03'0 0.0
2018-Jun-15 09:30N 40°43' W 074°03'  
Track history (hours):
 
Tides and Currents Weather Stations Pressure Air Temp Water Temp Dewpoint Dewpoint Depression Visibility Wind Speed Wind Dir Waves Ship Positions

Douglas B.gurian

Owner: Port Imperial Ferry Corporation, Weehawken, NJ. More information available from US FCC via Universal Licensing System and Coast Guard Vessel Documentation Center.

Last reported at 2018-Jun-25 05:41 UTC. Time now 2018-Jun-25 06:06 UTC.
Position N 40°46' W 074°01'.

Length 21 m; draft 2 m.

Type: Passenger vessel. MMSI: 366834170.

Date/timePositionNaut miles runAvg speedWind from/ knotsBaromVisibWave heightAir tempDewpointWater temp
2018-Jun-25 05:41N 40°46' W 074°01'0 0.0
2018-Jun-25 04:53N 40°46' W 074°01'0 0.0
2018-Jun-25 03:17N 40°46' W 074°01'0 0.0
2018-Jun-25 02:52N 40°46' W 074°01'0 0.0
2018-Jun-25 02:14N 40°46' W 074°01'0 0.0
2018-Jun-25 01:59N 40°46' W 074°01'0 0.0
2018-Jun-24 04:25N 40°46' W 074°01'1 2.3
2018-Jun-24 04:00N 40°45' W 074°01'1 1.2
2018-Jun-24 03:29N 40°46' W 074°00'1 1.1
2018-Jun-24 02:59N 40°45' W 074°01'0 0.5
2018-Jun-24 02:28N 40°45' W 074°01'0 0.9
2018-Jun-24 02:01N 40°45' W 074°01'1 1.2
2018-Jun-24 01:27N 40°46' W 074°00'1 1.4
2018-Jun-24 01:00N 40°45' W 074°01'1 1.0
2018-Jun-24 00:28N 40°46' W 074°01'1 1.3
2018-Jun-24 00:00N 40°46' W 074°01'0 0.8
2018-Jun-23 23:25N 40°45' W 074°01'0 0.7
2018-Jun-23 23:01N 40°45' W 074°01'1 1.2
2018-Jun-23 22:27N 40°46' W 074°00'1 1.7
2018-Jun-23 22:00N 40°45' W 074°01'0 0.8
2018-Jun-23 21:27N 40°45' W 074°01'0 0.9
2018-Jun-23 21:00N 40°45' W 074°01'1 1.5
2018-Jun-23 20:30N 40°46' W 074°00'1 1.3
2018-Jun-23 20:00N 40°45' W 074°01'0 0.7
2018-Jun-23 19:25N 40°45' W 074°01'0 1.0
2018-Jun-23 18:59N 40°45' W 074°01'0 0.9
2018-Jun-23 18:28N 40°45' W 074°01'1 1.4
2018-Jun-23 18:00N 40°45' W 074°01'1 1.6
2018-Jun-23 17:28N 40°46' W 074°00'1 1.8
2018-Jun-23 17:00N 40°45' W 074°01'1 1.1
2018-Jun-23 16:27N 40°45' W 074°01'1 1.2
2018-Jun-23 15:59N 40°45' W 074°01'1 1.5
2018-Jun-23 15:27N 40°46' W 074°00'1 1.9
2018-Jun-23 15:00N 40°45' W 074°01'1 1.3
2018-Jun-23 14:26N 40°46' W 074°01'1 1.5
2018-Jun-23 14:00N 40°45' W 074°01'1 1.3
2018-Jun-23 13:27N 40°46' W 074°00'1 1.4
2018-Jun-23 13:00N 40°45' W 074°01'1 0.1
2018-Jun-22 23:34N 40°46' W 074°01'226.6
2018-Jun-22 23:30N 40°45' W 074°01'1 1.7
2018-Jun-22 22:56N 40°46' W 074°00'2 4.1
2018-Jun-22 22:30N 40°44' W 074°02'2 3.0
2018-Jun-22 21:56N 40°46' W 074°00'2 3.9
2018-Jun-22 21:30N 40°44' W 074°02'2 3.2
2018-Jun-22 20:57N 40°46' W 074°00'2 3.9
2018-Jun-22 20:31N 40°44' W 074°02'2 3.2
2018-Jun-22 19:57N 40°46' W 074°00'1 0.3
2018-Jun-22 17:55N 40°46' W 074°01'2 5.8
2018-Jun-22 17:30N 40°44' W 074°02'2 0.1
2018-Jun-22 00:24N 40°46' W 074°01'411.2
2018-Jun-22 00:01N 40°42' W 074°00'2 3.5
2018-Jun-21 23:30N 40°43' W 074°03'0 0.1
2018-Jun-21 23:00N 40°43' W 074°03'0 0.0
2018-Jun-21 22:30N 40°43' W 074°03'0 0.0
2018-Jun-21 22:00N 40°43' W 074°03'0 0.1
2018-Jun-21 21:31N 40°43' W 074°03'0 0.1
2018-Jun-21 21:00N 40°43' W 074°03'0 0.1
2018-Jun-21 20:30N 40°43' W 074°03'1 1.6
2018-Jun-21 20:00N 40°43' W 074°02'3 1.7
2018-Jun-21 17:59N 40°46' W 074°01'4 7.8
2018-Jun-21 17:31N 40°43' W 074°02'1 2.4
2018-Jun-21 17:00N 40°42' W 074°00'1 2.6
2018-Jun-21 16:30N 40°43' W 074°02'1 2.7
2018-Jun-21 16:01N 40°42' W 074°00'1 2.7
2018-Jun-21 15:30N 40°43' W 074°02'1 2.8
2018-Jun-21 15:01N 40°42' W 074°00'1 2.7
2018-Jun-21 14:30N 40°43' W 074°02'0 0.2
2018-Jun-21 14:00N 40°43' W 074°02'0 1.0
2018-Jun-21 13:30N 40°43' W 074°03'0 0.0
2018-Jun-21 13:01N 40°43' W 074°03'0 0.0
2018-Jun-21 12:30N 40°43' W 074°03'0 0.0
2018-Jun-21 12:00N 40°43' W 074°03'0 0.0
2018-Jun-21 11:30N 40°43' W 074°03'0 0.0
2018-Jun-21 11:00N 40°43' W 074°03'0 0.0
2018-Jun-21 10:30N 40°43' W 074°03'0 0.0
2018-Jun-21 10:00N 40°43' W 074°03'0 0.0
2018-Jun-21 01:50N 40°43' W 074°03'2 6.4
2018-Jun-21 01:30N 40°41' W 074°03'2 4.6
2018-Jun-21 01:01N 40°42' W 074°01'2 3.5
2018-Jun-21 00:31N 40°41' W 074°02'2 3.5
2018-Jun-21 00:01N 40°42' W 074°01'0 0.6
2018-Jun-20 23:30N 40°42' W 074°00'0 0.0
2018-Jun-20 23:00N 40°42' W 074°00'0 0.0
2018-Jun-20 22:30N 40°42' W 074°00'0 0.0
2018-Jun-20 22:00N 40°42' W 074°00'0 0.1
2018-Jun-20 21:30N 40°42' W 074°00'0 0.1
2018-Jun-20 21:00N 40°42' W 074°00'0 0.0
2018-Jun-20 20:30N 40°42' W 074°00'0 0.0
2018-Jun-20 20:00N 40°42' W 074°00'1 2.8
2018-Jun-20 19:31N 40°43' W 074°02'1 2.8
2018-Jun-20 19:00N 40°42' W 074°00'1 2.6
2018-Jun-20 18:31N 40°43' W 074°02'1 2.6
2018-Jun-20 18:00N 40°42' W 074°00'2 4.3
2018-Jun-20 17:31N 40°44' W 074°02'2 0.7
2018-Jun-20 14:21N 40°46' W 074°01'3 9.9
2018-Jun-20 14:01N 40°43' W 074°01'1 2.0
2018-Jun-20 13:31N 40°42' W 074°00'0 0.1
2018-Jun-20 13:00N 40°42' W 074°00'0 0.1
2018-Jun-20 12:30N 40°42' W 074°00'0 0.0
2018-Jun-20 12:01N 40°42' W 074°00'0 0.0
2018-Jun-20 11:30N 40°42' W 074°00'0 0.1
2018-Jun-20 11:00N 40°42' W 074°00'0 0.0
2018-Jun-20 10:31N 40°42' W 074°00'2 4.2
2018-Jun-20 10:00N 40°44' W 074°02'2 0.2
2018-Jun-20 00:20N 40°46' W 074°01'412.7
2018-Jun-20 00:01N 40°42' W 074°00'0 0.1
2018-Jun-19 23:31N 40°42' W 074°00'0 0.0
2018-Jun-19 23:00N 40°42' W 074°00'0 0.0
2018-Jun-19 22:31N 40°42' W 074°00'0 0.0
2018-Jun-19 22:01N 40°42' W 074°00'0 0.0
2018-Jun-19 21:30N 40°42' W 074°00'0 0.0
2018-Jun-19 21:00N 40°42' W 074°00'0 0.0
2018-Jun-19 20:31N 40°42' W 074°00'0 0.0
2018-Jun-19 20:00N 40°42' W 074°00'1 2.8
2018-Jun-19 19:30N 40°43' W 074°02'1 2.8
2018-Jun-19 19:00N 40°42' W 074°00'1 2.8
2018-Jun-19 18:30N 40°43' W 074°02'1 2.7
2018-Jun-19 18:00N 40°42' W 074°00'2 4.4
2018-Jun-19 17:30N 40°44' W 074°02'2 0.7
2018-Jun-19 14:12N 40°46' W 074°01'317.0
2018-Jun-19 14:00N 40°43' W 074°01'1 2.3
2018-Jun-19 13:30N 40°42' W 074°00'0 0.0
2018-Jun-19 13:01N 40°42' W 074°00'0 0.0
2018-Jun-19 12:30N 40°42' W 074°00'0 0.0
2018-Jun-19 12:00N 40°42' W 074°00'0 0.0
2018-Jun-19 11:30N 40°42' W 074°00'0 0.0
2018-Jun-19 11:01N 40°42' W 074°00'0 0.0
2018-Jun-19 10:31N 40°42' W 074°00'3 5.1
2018-Jun-19 10:01N 40°45' W 074°01'2 0.2
2018-Jun-19 00:25N 40°46' W 074°01'410.1
2018-Jun-19 00:01N 40°42' W 074°00'2 3.5
2018-Jun-18 23:30N 40°43' W 074°03'0 0.0
2018-Jun-18 23:01N 40°43' W 074°03'0 0.8
2018-Jun-18 22:30N 40°43' W 074°02'0 0.5
2018-Jun-18 22:01N 40°43' W 074°02'0 0.2
2018-Jun-18 21:30N 40°43' W 074°03'0 0.0
2018-Jun-18 21:00N 40°43' W 074°03'0 0.0
2018-Jun-18 20:30N 40°43' W 074°03'1 1.0
2018-Jun-18 20:00N 40°43' W 074°02'1 0.5
2018-Jun-18 17:50N 40°44' W 074°01'1 3.8
2018-Jun-18 17:31N 40°43' W 074°02'1 2.4
2018-Jun-18 17:00N 40°42' W 074°00'1 2.5
2018-Jun-18 16:31N 40°43' W 074°02'1 2.6
2018-Jun-18 16:01N 40°42' W 074°00'1 2.8
2018-Jun-18 15:31N 40°43' W 074°02'1 2.8
2018-Jun-18 15:01N 40°42' W 074°00'1 2.7
2018-Jun-18 14:30N 40°43' W 074°02'1 2.8
2018-Jun-18 14:01N 40°42' W 074°00'2 3.6
2018-Jun-18 13:30N 40°43' W 074°03'0 0.1
2018-Jun-18 13:01N 40°43' W 074°03'0 0.0
2018-Jun-18 12:30N 40°43' W 074°03'0 0.0
2018-Jun-18 12:00N 40°43' W 074°03'0 0.0
2018-Jun-18 11:30N 40°43' W 074°03'0 0.0
2018-Jun-18 11:00N 40°43' W 074°03'0 0.0
2018-Jun-18 10:30N 40°43' W 074°03'0 0.0
2018-Jun-18 10:01N 40°43' W 074°03'0 0.1
2018-Jun-18 09:30N 40°43' W 074°03'0 0.0
2018-Jun-18 09:01N 40°43' W 074°03'0 0.0
2018-Jun-18 08:30N 40°43' W 074°03'0 0.0
2018-Jun-18 08:00N 40°43' W 074°03'0 0.0
2018-Jun-18 07:30N 40°43' W 074°03'0 0.0
2018-Jun-18 07:00N 40°43' W 074°03'0 0.0
2018-Jun-18 06:30N 40°43' W 074°03'0 0.0
2018-Jun-18 06:01N 40°43' W 074°03'0 0.0
2018-Jun-18 05:30N 40°43' W 074°03'0 0.0
2018-Jun-18 05:00N 40°43' W 074°03'0 0.0
2018-Jun-18 04:30N 40°43' W 074°03'0 0.0
2018-Jun-18 04:00N 40°43' W 074°03'0 0.0
2018-Jun-18 03:30N 40°43' W 074°03'0 0.0
2018-Jun-18 03:00N 40°43' W 074°03'0 0.0
2018-Jun-18 02:30N 40°43' W 074°03'0 0.0
2018-Jun-16 02:09N 40°43' W 074°03'210.8
2018-Jun-16 02:00N 40°42' W 074°01'1 1.9
2018-Jun-16 01:30N 40°41' W 074°02'1 2.3
2018-Jun-16 01:01N 40°42' W 074°01'2 3.8
2018-Jun-16 00:30N 40°41' W 074°03'2 3.9
2018-Jun-16 00:01N 40°42' W 074°01'1 2.3
2018-Jun-15 23:31N 40°43' W 074°02'0 0.3
2018-Jun-15 23:00N 40°43' W 074°02'0 0.3
2018-Jun-15 22:30N 40°43' W 074°02'0 0.2
2018-Jun-15 22:00N 40°43' W 074°02'0 0.5
2018-Jun-15 21:30N 40°43' W 074°03'0 0.2
2018-Jun-15 21:00N 40°43' W 074°02'0 0.0
2018-Jun-15 20:30N 40°43' W 074°02'0 0.9
2018-Jun-15 20:00N 40°43' W 074°02'1 0.3
2018-Jun-15 17:48N 40°43' W 074°01'1 2.6
2018-Jun-15 17:31N 40°43' W 074°02'1 2.4
2018-Jun-15 17:00N 40°42' W 074°00'1 2.6
2018-Jun-15 16:31N 40°43' W 074°02'1 2.5
2018-Jun-15 16:00N 40°42' W 074°00'1 2.6
2018-Jun-15 15:31N 40°43' W 074°02'1 2.6
2018-Jun-15 15:00N 40°42' W 074°00'1 2.4
2018-Jun-15 14:30N 40°43' W 074°02'1 2.3
2018-Jun-15 14:01N 40°42' W 074°00'2 3.5
2018-Jun-15 13:31N 40°43' W 074°03'0 0.0
2018-Jun-15 13:00N 40°43' W 074°03'0 0.0
2018-Jun-15 12:30N 40°43' W 074°03'0 0.0
2018-Jun-15 12:00N 40°43' W 074°03'0 0.0
2018-Jun-15 11:30N 40°43' W 074°03'0 0.0
2018-Jun-15 11:00N 40°43' W 074°03'0 0.1
2018-Jun-15 10:30N 40°43' W 074°03'0 0.1
2018-Jun-15 10:00N 40°43' W 074°03'0 0.0
2018-Jun-15 09:30N 40°43' W 074°03'  

Dump ship's entire track history